createdAt,value
2022-09-01T00:00:13.490Z,3.42
2022-09-01T00:02:40.898Z,3.47
2022-09-01T00:05:08.202Z,3.17
2022-09-01T00:07:35.860Z,3.65
2022-09-01T00:10:07.398Z,2.50
2022-09-01T00:12:34.679Z,2.20
2022-09-01T00:15:01.834Z,3.08
2022-09-01T00:17:29.151Z,2.30
2022-09-01T00:19:55.992Z,1.63
2022-09-01T00:22:22.958Z,2.42
2022-09-01T00:24:49.828Z,2.90
2022-09-01T00:27:17.190Z,2.70
2022-09-01T00:29:44.865Z,2.08
2022-09-01T00:32:12.483Z,2.10
2022-09-01T00:34:42.096Z,1.80
2022-09-01T00:37:09.000Z,2.85
2022-09-01T00:39:35.861Z,2.33
2022-09-01T00:42:02.941Z,2.20
2022-09-01T00:44:31.286Z,1.63
2022-09-01T00:46:59.886Z,1.58
2022-09-01T00:49:35.374Z,1.52
2022-09-01T00:52:07.627Z,1.58
2022-09-01T00:54:40.049Z,1.70
2022-09-01T00:57:09.436Z,1.90
2022-09-01T00:59:39.520Z,1.70
2022-09-01T01:02:06.478Z,1.80
2022-09-01T01:04:33.311Z,1.95
2022-09-01T01:07:04.090Z,1.58
2022-09-01T01:09:34.658Z,1.92
2022-09-01T01:12:03.309Z,1.77
2022-09-01T01:14:32.001Z,1.95
2022-09-01T01:17:00.449Z,2.15
2022-09-01T01:19:58.839Z,2.60
2022-09-01T01:22:54.289Z,2.60
2022-09-01T01:25:22.540Z,2.30
2022-09-01T01:27:50.584Z,1.90
2022-09-01T01:30:19.107Z,1.83
2022-09-01T01:32:47.749Z,1.73
2022-09-01T01:35:16.898Z,1.50
2022-09-01T01:37:45.888Z,1.50
2022-09-01T01:40:17.043Z,1.40
2022-09-01T01:42:49.695Z,1.30
2022-09-01T01:45:20.352Z,1.55
2022-09-01T01:47:56.604Z,1.60
2022-09-01T01:50:33.540Z,2.03
2022-09-01T01:53:02.952Z,1.80
2022-09-01T01:55:38.218Z,2.15
2022-09-01T01:58:05.377Z,2.70
2022-09-01T02:00:35.152Z,2.13
2022-09-01T02:03:03.326Z,2.40
2022-09-01T02:05:33.196Z,2.80
2022-09-01T02:08:04.753Z,3.08
2022-09-01T02:10:44.827Z,2.63
2022-09-01T02:13:16.557Z,3.03
2022-09-01T02:15:49.520Z,3.25
2022-09-01T02:18:19.881Z,3.67
2022-09-01T02:20:49.531Z,2.78
2022-09-01T02:23:20.236Z,2.75
2022-09-01T02:26:14.087Z,3.35
2022-09-01T02:28:37.141Z,2.67
2022-09-01T02:31:05.336Z,2.30
2022-09-01T02:33:32.713Z,2.90
2022-09-01T02:36:02.248Z,1.98
2022-09-01T02:38:29.878Z,1.75
2022-09-01T02:41:01.780Z,2.17
2022-09-01T02:43:29.952Z,2.38
2022-09-01T02:46:07.559Z,2.70
2022-09-01T02:48:40.402Z,2.53
2022-09-01T02:51:10.506Z,2.85
2022-09-01T02:53:39.545Z,2.92
2022-09-01T02:56:14.492Z,2.85
2022-09-01T02:58:46.346Z,3.42
2022-09-01T03:01:22.178Z,3.28
2022-09-01T03:03:51.027Z,3.72
2022-09-01T03:06:19.915Z,3.28
2022-09-01T03:08:48.205Z,2.58
2022-09-01T03:11:15.329Z,3.00
2022-09-01T03:13:43.232Z,2.80
2022-09-01T03:16:11.095Z,3.78
2022-09-01T03:18:39.725Z,3.40
2022-09-01T03:21:08.471Z,2.47
2022-09-01T03:23:37.105Z,3.08
2022-09-01T03:26:04.418Z,2.85
2022-09-01T03:28:32.019Z,3.20
2022-09-01T03:30:59.943Z,3.30
2022-09-01T03:33:28.496Z,3.78
2022-09-01T03:35:57.123Z,2.97
2022-09-01T03:38:24.862Z,3.13
2022-09-01T03:41:02.034Z,2.25
2022-09-01T03:43:36.056Z,3.17
2022-09-01T03:46:03.957Z,2.90
2022-09-01T03:48:32.554Z,3.20
2022-09-01T03:51:03.296Z,2.85
2022-09-01T03:53:37.065Z,2.78
2022-09-01T03:56:06.169Z,2.97
2022-09-01T03:58:33.763Z,3.22
2022-09-01T04:01:03.061Z,2.58
2022-09-01T04:03:33.012Z,2.60
2022-09-01T04:06:02.307Z,2.65
2022-09-01T04:08:32.813Z,2.60
2022-09-01T04:11:05.330Z,2.42
2022-09-01T04:13:37.399Z,2.30
2022-09-01T04:16:10.907Z,2.40
2022-09-01T04:18:40.214Z,2.53
2022-09-01T04:21:08.247Z,2.97
2022-09-01T04:23:37.225Z,3.15
2022-09-01T04:26:14.695Z,2.53
2022-09-01T04:28:47.416Z,2.83
2022-09-01T04:31:18.717Z,2.05
2022-09-01T04:33:50.133Z,2.58
2022-09-01T04:36:23.601Z,2.83
2022-09-01T04:38:56.533Z,2.20
2022-09-01T04:41:31.977Z,2.00
2022-09-01T04:44:04.832Z,2.78
2022-09-01T04:46:40.882Z,2.00
2022-09-01T04:49:13.214Z,2.10
2022-09-01T04:51:41.842Z,1.60
2022-09-01T04:54:14.556Z,1.70
2022-09-01T04:56:49.612Z,1.88
2022-09-01T04:59:20.427Z,2.90
2022-09-01T05:01:54.927Z,2.72
2022-09-01T05:04:27.546Z,2.22
2022-09-01T05:07:01.212Z,2.40
2022-09-01T05:09:37.941Z,2.00
2022-09-01T05:12:27.679Z,2.20
2022-09-01T05:14:56.067Z,2.58
2022-09-01T05:17:23.393Z,3.20
2022-09-01T05:19:51.045Z,2.55
2022-09-01T05:22:22.379Z,3.13
2022-09-01T05:25:13.529Z,2.95
2022-09-01T05:27:49.834Z,2.40
2022-09-01T05:30:19.513Z,2.60
2022-09-01T05:32:49.157Z,2.35
2022-09-01T05:35:17.636Z,2.38
2022-09-01T05:37:44.941Z,2.40
2022-09-01T05:40:16.353Z,2.22
2022-09-01T05:42:45.803Z,2.40
2022-09-01T05:45:14.306Z,2.33
2022-09-01T05:47:42.161Z,2.40
2022-09-01T05:50:14.252Z,2.47
2022-09-01T05:52:44.568Z,1.95
2022-09-01T05:55:11.802Z,2.20
2022-09-01T05:57:42.084Z,2.30
2022-09-01T06:00:14.467Z,2.53
2022-09-01T06:02:42.936Z,3.00
2022-09-01T06:05:15.930Z,2.85
2022-09-01T06:07:44.402Z,2.33
2022-09-01T06:10:14.724Z,1.60
2022-09-01T06:12:43.264Z,2.17
2022-09-01T06:15:16.274Z,3.00
2022-09-01T06:17:49.089Z,1.92
2022-09-01T06:20:18.942Z,3.20
2022-09-01T06:22:47.613Z,2.65
2022-09-01T06:25:18.643Z,2.47
2022-09-01T06:27:48.336Z,2.80
2022-09-01T06:30:24.448Z,1.83
2022-09-01T06:32:57.978Z,2.58
2022-09-01T06:35:29.558Z,1.92
2022-09-01T06:37:58.496Z,3.00
2022-09-01T06:40:41.594Z,1.80
2022-09-01T06:43:12.162Z,3.28
2022-09-01T06:45:49.850Z,2.83
2022-09-01T06:48:18.484Z,2.80
2022-09-01T06:53:35.734Z,2.58
2022-09-01T06:56:06.252Z,2.85
2022-09-01T06:58:35.060Z,2.70
2022-09-01T07:01:14.642Z,2.55
2022-09-01T07:03:43.847Z,2.13
2022-09-01T07:09:22.150Z,2.65
2022-09-01T07:12:25.903Z,1.52
2022-09-01T07:17:50.117Z,2.30
2022-09-01T07:20:23.897Z,2.05
2022-09-01T07:23:08.145Z,2.42
2022-09-01T07:26:01.347Z,2.83
2022-09-01T07:28:37.046Z,2.55
2022-09-01T07:33:55.696Z,2.00
2022-09-01T07:46:36.602Z,2.80
2022-09-01T07:49:02.695Z,2.60
2022-09-01T07:51:42.126Z,1.75
2022-09-01T07:54:09.264Z,1.98
2022-09-01T07:59:27.978Z,2.33
2022-09-01T08:02:12.309Z,2.50
2022-09-01T08:04:41.267Z,2.15
2022-09-01T08:07:15.354Z,2.13
2022-09-01T08:09:44.639Z,2.35
2022-09-01T08:12:12.999Z,2.08
2022-09-01T08:14:46.748Z,2.17
2022-09-01T08:17:18.130Z,2.20
2022-09-01T08:20:08.568Z,2.28
2022-09-01T08:22:55.363Z,2.28
2022-09-01T08:25:33.708Z,2.13
2022-09-01T08:28:02.014Z,1.63
2022-09-01T08:30:30.125Z,1.92
2022-09-01T08:32:58.069Z,2.08
2022-09-01T08:35:24.964Z,2.00
2022-09-01T08:37:54.171Z,1.75
2022-09-01T08:40:23.662Z,1.70
2022-09-01T08:43:20.303Z,1.60
2022-09-01T08:45:56.038Z,2.60
2022-09-01T08:49:24.087Z,2.17
2022-09-01T08:51:50.070Z,2.10
2022-09-01T08:54:29.989Z,1.70
2022-09-01T08:57:14.680Z,2.22
2022-09-01T09:00:20.138Z,1.92
2022-09-01T09:03:07.739Z,1.52
2022-09-01T09:06:12.924Z,1.60
2022-09-01T09:08:58.559Z,2.00
2022-09-01T09:11:34.449Z,2.05
2022-09-01T09:14:07.279Z,2.13
2022-09-01T09:17:04.444Z,2.25
2022-09-01T09:19:32.235Z,1.70
2022-09-01T09:22:02.461Z,1.48
2022-09-01T09:24:48.503Z,1.77
2022-09-01T09:27:26.878Z,1.50
2022-09-01T09:30:09.206Z,2.03
2022-09-01T09:35:50.902Z,2.17
2022-09-01T09:38:24.380Z,1.80
2022-09-01T09:41:16.475Z,1.67
2022-09-01T09:44:03.332Z,1.65
2022-09-01T09:46:43.668Z,1.48
2022-09-01T09:49:36.373Z,1.92
2022-09-01T09:52:10.653Z,1.75
2022-09-01T09:55:05.173Z,1.80
2022-09-01T09:57:32.872Z,1.40
2022-09-01T10:00:08.980Z,2.05
2022-09-01T10:02:44.080Z,1.92
2022-09-01T10:05:40.364Z,2.25
2022-09-01T10:08:11.731Z,1.67
2022-09-01T10:10:57.269Z,1.90
2022-09-01T10:13:25.945Z,1.60
2022-09-01T10:15:57.226Z,1.85
2022-09-01T10:18:30.315Z,1.95
2022-09-01T10:21:15.992Z,1.55
2022-09-01T10:23:43.451Z,1.20
2022-09-01T10:26:19.149Z,1.60
2022-09-01T10:29:22.613Z,1.75
2022-09-01T10:31:49.455Z,1.83
2022-09-01T10:34:19.438Z,1.80
2022-09-01T10:36:55.860Z,1.80
2022-09-01T10:39:27.709Z,1.60
2022-09-01T10:42:08.313Z,1.23
2022-09-01T10:44:58.350Z,1.73
2022-09-01T10:47:30.166Z,1.90
2022-09-01T10:50:00.128Z,1.77
2022-09-01T10:55:26.417Z,1.30
2022-09-01T11:01:41.110Z,1.27
2022-09-01T11:03:54.331Z,1.60
2022-09-01T11:07:11.554Z,1.70
2022-09-01T11:09:38.463Z,1.20
2022-09-01T11:12:28.815Z,1.30
2022-09-01T11:15:35.494Z,1.20
2022-09-01T11:18:03.634Z,1.10
2022-09-01T11:20:36.871Z,1.52
2022-09-01T11:23:14.775Z,1.20
2022-09-01T11:26:19.075Z,1.00
2022-09-01T11:28:38.764Z,0.98
2022-09-01T11:31:06.479Z,1.23
2022-09-01T11:33:52.257Z,1.10
2022-09-01T11:36:30.892Z,1.13
2022-09-01T11:39:08.744Z,1.30
2022-09-01T11:41:58.550Z,1.17
2022-09-01T11:44:54.017Z,1.20
2022-09-01T11:47:27.978Z,0.80
2022-09-01T11:50:01.057Z,1.20
2022-09-01T11:52:34.321Z,1.42
2022-09-01T11:55:01.596Z,1.50
2022-09-01T11:57:37.043Z,1.08
2022-09-01T12:00:11.139Z,1.30
2022-09-01T12:02:51.385Z,1.35
2022-09-01T12:05:31.462Z,1.52
2022-09-01T12:07:59.637Z,1.30
2022-09-01T12:10:33.696Z,1.30
2022-09-01T12:13:19.536Z,1.40
2022-09-01T12:16:17.459Z,1.15
2022-09-01T12:18:48.251Z,1.20
2022-09-01T12:21:34.803Z,1.10
2022-09-01T12:24:15.473Z,1.20
2022-09-01T12:26:43.296Z,1.30
2022-09-01T12:29:11.428Z,1.20
2022-09-01T12:31:41.387Z,1.30
2022-09-01T12:34:24.962Z,1.10
2022-09-01T12:37:08.355Z,1.10
2022-09-01T12:39:48.009Z,1.92
2022-09-01T12:42:27.535Z,1.20
2022-09-01T12:44:57.471Z,2.00
2022-09-01T12:47:36.337Z,1.55
2022-09-01T12:50:05.820Z,1.10
2022-09-01T12:52:40.152Z,1.48
2022-09-01T12:55:07.101Z,1.50
2022-09-01T12:57:36.753Z,1.70
2022-09-01T13:00:19.917Z,1.40
2022-09-01T13:02:53.329Z,1.80
2022-09-01T13:05:41.712Z,1.35
2022-09-01T13:08:13.938Z,1.50
2022-09-01T13:10:49.735Z,1.88
2022-09-01T13:13:17.524Z,1.30
2022-09-01T13:15:50.381Z,1.38
2022-09-01T13:18:19.269Z,1.60
2022-09-01T13:20:46.339Z,1.40
2022-09-01T13:23:13.361Z,1.33
2022-09-01T13:25:41.608Z,1.50
2022-09-01T13:28:08.958Z,1.25
2022-09-01T13:30:35.833Z,1.58
2022-09-01T13:33:19.215Z,1.33
2022-09-01T13:35:46.635Z,1.38
2022-09-01T13:38:16.294Z,1.90
2022-09-01T13:40:45.567Z,1.30
2022-09-01T13:43:14.112Z,1.30
2022-09-01T13:45:42.300Z,1.20
2022-09-01T13:48:16.625Z,1.20
2022-09-01T13:53:32.671Z,1.10
2022-09-01T13:55:59.502Z,1.20
2022-09-01T13:58:26.323Z,1.20
2022-09-01T14:00:53.227Z,1.48
2022-09-01T14:03:22.662Z,1.33
2022-09-01T14:05:49.849Z,1.40
2022-09-01T14:08:19.745Z,1.40
2022-09-01T14:10:51.045Z,1.23
2022-09-01T14:13:20.253Z,1.48
2022-09-01T14:15:48.346Z,1.67
2022-09-01T14:18:16.313Z,1.63
2022-09-01T14:20:46.039Z,1.80
2022-09-01T14:23:15.038Z,1.45
2022-09-01T14:25:44.966Z,1.52
2022-09-01T14:28:13.266Z,1.87
2022-09-01T14:30:42.836Z,1.88
2022-09-01T14:33:10.952Z,1.77
2022-09-01T14:35:42.980Z,1.60
2022-09-01T14:38:10.383Z,1.67
2022-09-01T14:40:38.786Z,1.27
2022-09-01T14:43:09.898Z,1.48
2022-09-01T14:45:37.816Z,1.73
2022-09-01T14:48:05.574Z,1.13
2022-09-01T14:50:34.156Z,1.50
2022-09-01T14:53:02.759Z,1.70
2022-09-01T14:55:30.637Z,1.50
2022-09-01T14:57:57.696Z,1.38
2022-09-01T15:00:27.951Z,2.00
2022-09-01T15:02:55.627Z,1.35
2022-09-01T15:05:23.249Z,1.58
2022-09-01T15:07:50.936Z,1.40
2022-09-01T15:10:25.359Z,1.50
2022-09-01T15:12:57.286Z,1.20
2022-09-01T15:15:25.485Z,1.30
2022-09-01T15:17:52.717Z,1.40
2022-09-01T15:20:38.099Z,1.30
2022-09-01T15:23:05.503Z,1.40
2022-09-01T15:25:32.490Z,1.30
2022-09-01T15:28:00.329Z,1.38
2022-09-01T15:30:28.126Z,1.40
2022-09-01T15:32:55.388Z,1.20
2022-09-01T15:35:23.068Z,1.40
2022-09-01T15:37:51.571Z,1.10
2022-09-01T15:40:19.587Z,1.20
2022-09-01T15:42:46.744Z,1.08
2022-09-01T15:45:19.684Z,1.10
2022-09-01T15:47:48.400Z,1.30
2022-09-01T15:50:21.398Z,1.30
2022-09-01T15:52:55.873Z,1.20
2022-09-01T15:55:28.602Z,1.05
2022-09-01T15:57:55.937Z,1.10
2022-09-01T16:00:25.497Z,0.90
2022-09-01T16:02:54.529Z,1.27
2022-09-01T16:05:21.554Z,1.27
2022-09-01T16:07:50.227Z,1.08
2022-09-01T16:10:17.089Z,1.00
2022-09-01T16:12:44.776Z,0.95
2022-09-01T16:15:15.695Z,1.30
2022-09-01T16:18:21.390Z,1.02
2022-09-01T16:21:10.088Z,1.38
2022-09-01T16:23:44.050Z,1.10
2022-09-01T16:26:12.165Z,1.20
2022-09-01T16:28:39.640Z,1.55
2022-09-01T16:31:21.190Z,1.20
2022-09-01T16:33:51.568Z,1.40
2022-09-01T16:36:34.767Z,1.73
2022-09-01T16:39:11.531Z,1.23
2022-09-01T16:42:04.111Z,1.45
2022-09-01T16:45:17.241Z,1.60
2022-09-01T16:47:49.123Z,1.42
2022-09-01T16:50:38.707Z,1.42
2022-09-01T16:53:30.682Z,1.27
2022-09-01T16:56:09.279Z,1.50
2022-09-01T16:58:54.538Z,1.40
2022-09-01T17:02:11.217Z,1.27
2022-09-01T17:04:48.017Z,1.13
2022-09-01T17:07:14.935Z,1.17
2022-09-01T17:09:49.852Z,1.40
2022-09-01T17:12:33.300Z,1.20
2022-09-01T17:15:31.677Z,1.05
2022-09-01T17:18:21.989Z,1.30
2022-09-01T17:21:02.337Z,0.90
2022-09-01T17:23:35.633Z,1.13
2022-09-01T17:26:15.001Z,1.33
2022-09-01T17:29:11.999Z,0.90
2022-09-01T17:32:30.978Z,0.80
2022-09-01T17:35:23.630Z,0.88
2022-09-01T17:38:09.017Z,0.90
2022-09-01T17:40:50.766Z,1.00
2022-09-01T17:43:29.419Z,1.08
2022-09-01T17:46:13.530Z,1.27
2022-09-01T17:48:43.311Z,1.20
2022-09-01T17:51:26.022Z,1.10
2022-09-01T17:54:17.321Z,1.50
2022-09-01T17:56:49.980Z,1.00
2022-09-01T17:59:54.647Z,1.02
2022-09-01T18:02:24.753Z,1.23
2022-09-01T18:04:55.995Z,1.03
2022-09-01T18:07:41.374Z,1.00
2022-09-01T18:10:14.077Z,0.88
2022-09-01T18:12:43.263Z,1.00
2022-09-01T18:15:29.352Z,1.10
2022-09-01T18:18:14.564Z,1.13
2022-09-01T18:20:46.466Z,1.15
2022-09-01T18:23:19.380Z,1.15
2022-09-01T18:25:49.936Z,1.20
2022-09-01T18:28:17.131Z,1.38
2022-09-01T18:30:59.323Z,1.08
2022-09-01T18:33:29.815Z,1.23
2022-09-01T18:36:03.924Z,1.30
2022-09-01T18:38:43.441Z,1.25
2022-09-01T18:41:28.699Z,1.48
2022-09-01T18:44:14.317Z,1.20
2022-09-01T18:46:54.975Z,1.20
2022-09-01T18:49:29.129Z,1.15
2022-09-01T18:52:31.214Z,1.40
2022-09-01T18:55:19.822Z,0.95
2022-09-01T18:57:52.574Z,1.15
2022-09-01T19:00:21.390Z,1.40
2022-09-01T19:02:53.580Z,1.52
2022-09-01T19:05:29.031Z,1.60
2022-09-01T19:08:08.372Z,1.15
2022-09-01T19:10:52.833Z,1.20
2022-09-01T19:13:44.853Z,1.30
2022-09-01T19:16:32.447Z,1.20
2022-09-01T19:19:17.279Z,1.20
2022-09-01T19:21:44.750Z,1.15
2022-09-01T19:24:26.607Z,1.15
2022-09-01T19:27:21.919Z,1.20
2022-09-01T19:29:53.657Z,1.10
2022-09-01T19:32:23.003Z,1.00
2022-09-01T19:34:59.988Z,1.10
2022-09-01T19:37:26.866Z,1.85
2022-09-01T19:39:54.620Z,1.27
2022-09-01T19:43:11.452Z,1.60
2022-09-01T19:45:47.275Z,1.58
2022-09-01T19:48:25.213Z,1.67
2022-09-01T19:50:59.277Z,1.02
2022-09-01T19:53:45.504Z,1.90
2022-09-01T19:56:35.499Z,1.40
2022-09-01T19:59:27.681Z,1.73
2022-09-01T20:02:04.535Z,1.70
2022-09-01T20:04:41.289Z,1.75
2022-09-01T20:07:51.185Z,1.40
2022-09-01T20:10:37.952Z,1.23
2022-09-01T20:13:10.782Z,1.77
2022-09-01T20:15:55.116Z,2.22
2022-09-01T20:18:31.121Z,1.58
2022-09-01T20:21:04.850Z,1.27
2022-09-01T20:24:00.171Z,1.30
2022-09-01T20:26:32.820Z,1.15
2022-09-01T20:29:09.132Z,1.30
2022-09-01T20:31:48.967Z,1.40
2022-09-01T20:34:15.756Z,1.40
2022-09-01T20:36:49.749Z,1.77
2022-09-01T20:39:40.014Z,1.15
2022-09-01T20:42:13.368Z,1.90
2022-09-01T20:44:45.140Z,1.08
2022-09-01T20:47:12.546Z,1.27
2022-09-01T20:49:40.310Z,1.05
2022-09-01T20:52:13.012Z,1.27
2022-09-01T20:55:12.076Z,1.50
2022-09-01T20:57:54.387Z,1.50
2022-09-01T21:00:25.948Z,1.20
2022-09-01T21:03:19.247Z,1.23
2022-09-01T21:06:15.697Z,1.45
2022-09-01T21:09:20.814Z,1.70
2022-09-01T21:12:02.551Z,1.67
2022-09-01T21:14:48.557Z,1.65
2022-09-01T21:17:33.981Z,1.30
2022-09-01T21:20:22.169Z,0.98
2022-09-01T21:22:50.355Z,1.35
2022-09-01T21:25:17.403Z,1.70
2022-09-01T21:27:52.118Z,2.00
2022-09-01T21:30:19.818Z,1.70
2022-09-01T21:32:47.089Z,1.95
2022-09-01T21:35:17.149Z,2.08
2022-09-01T21:37:44.094Z,1.92
2022-09-01T21:40:12.144Z,1.63
2022-09-01T21:43:01.779Z,1.60
2022-09-01T21:45:28.904Z,1.83
2022-09-01T21:47:55.743Z,2.33
2022-09-01T21:50:25.301Z,1.98
2022-09-01T21:52:52.224Z,1.50
2022-09-01T21:55:22.862Z,2.30
2022-09-01T21:57:51.175Z,1.15
2022-09-01T22:00:21.922Z,1.50
2022-09-01T22:02:49.235Z,1.73
2022-09-01T22:05:16.132Z,1.20
2022-09-01T22:07:45.489Z,1.48
2022-09-01T22:10:15.696Z,1.83
2022-09-01T22:12:45.023Z,1.80
2022-09-01T22:15:13.773Z,1.88
2022-09-01T22:17:40.898Z,1.50
2022-09-01T22:20:09.256Z,0.90
2022-09-01T22:22:36.236Z,1.30
2022-09-01T22:25:08.399Z,1.25
2022-09-01T22:27:35.428Z,1.17
2022-09-01T22:30:04.333Z,1.73
2022-09-01T22:32:33.158Z,1.20
2022-09-01T22:35:02.603Z,1.42
2022-09-01T22:37:29.544Z,1.33
2022-09-01T22:39:56.310Z,1.73
2022-09-01T22:42:23.110Z,0.90
2022-09-01T22:44:49.972Z,1.60
2022-09-01T22:47:16.863Z,1.60
2022-09-01T22:49:43.868Z,1.35
2022-09-01T22:52:10.749Z,1.35
2022-09-01T22:54:41.096Z,1.48
2022-09-01T22:57:08.034Z,0.90
2022-09-01T22:59:35.001Z,1.88
2022-09-01T23:02:02.029Z,1.45
2022-09-01T23:04:30.992Z,1.85
2022-09-01T23:06:58.184Z,1.40
2022-09-01T23:09:25.062Z,1.77
2022-09-01T23:11:51.933Z,1.50
2022-09-01T23:14:18.849Z,1.65
2022-09-01T23:16:47.133Z,1.73
2022-09-01T23:19:19.613Z,1.65
2022-09-01T23:21:47.890Z,1.75
2022-09-01T23:24:15.283Z,1.70
2022-09-01T23:26:42.226Z,1.10
2022-09-01T23:29:09.611Z,2.20
2022-09-01T23:31:38.265Z,1.75
2022-09-01T23:34:07.216Z,1.88
2022-09-01T23:36:35.104Z,1.48
2022-09-01T23:39:04.447Z,1.45
2022-09-01T23:41:33.971Z,1.45
2022-09-01T23:44:04.077Z,0.90
2022-09-01T23:46:34.387Z,2.20
2022-09-01T23:49:02.068Z,1.50
2022-09-01T23:51:30.020Z,1.63
2022-09-01T23:53:56.994Z,1.35
2022-09-01T23:56:26.048Z,1.42
2022-09-01T23:58:53.020Z,1.30
